sensor_id;sensor_type;location;lat;lon;timestamp;P1;durP1;ratioP1;P2;durP2;ratioP2
79585;SDS011;69054;50.866;4.636;2023-07-29T00:00:21;4.93;;;2.90;;
79585;SDS011;69054;50.866;4.636;2023-07-29T00:02:47;3.67;;;2.42;;
79585;SDS011;69054;50.866;4.636;2023-07-29T00:05:12;5.15;;;2.85;;
79585;SDS011;69054;50.866;4.636;2023-07-29T00:07:37;3.00;;;2.50;;
79585;SDS011;69054;50.866;4.636;2023-07-29T00:10:03;4.57;;;2.70;;
79585;SDS011;69054;50.866;4.636;2023-07-29T00:12:29;4.10;;;2.60;;
79585;SDS011;69054;50.866;4.636;2023-07-29T00:14:54;4.03;;;2.83;;
79585;SDS011;69054;50.866;4.636;2023-07-29T00:17:20;5.28;;;3.03;;
79585;SDS011;69054;50.866;4.636;2023-07-29T00:19:45;4.13;;;2.50;;
79585;SDS011;69054;50.866;4.636;2023-07-29T00:22:11;4.88;;;2.80;;
79585;SDS011;69054;50.866;4.636;2023-07-29T00:24:37;5.20;;;2.83;;
79585;SDS011;69054;50.866;4.636;2023-07-29T00:27:04;4.95;;;3.03;;
79585;SDS011;69054;50.866;4.636;2023-07-29T00:29:30;3.35;;;2.13;;
79585;SDS011;69054;50.866;4.636;2023-07-29T00:31:55;3.95;;;2.67;;
79585;SDS011;69054;50.866;4.636;2023-07-29T00:34:21;4.57;;;2.30;;
79585;SDS011;69054;50.866;4.636;2023-07-29T00:36:46;3.72;;;2.00;;
79585;SDS011;69054;50.866;4.636;2023-07-29T00:39:11;4.20;;;2.10;;
79585;SDS011;69054;50.866;4.636;2023-07-29T00:41:37;4.05;;;2.35;;
79585;SDS011;69054;50.866;4.636;2023-07-29T00:44:02;5.25;;;2.53;;
79585;SDS011;69054;50.866;4.636;2023-07-29T00:46:28;3.25;;;2.30;;
79585;SDS011;69054;50.866;4.636;2023-07-29T00:48:56;3.38;;;2.17;;
79585;SDS011;69054;50.866;4.636;2023-07-29T00:51:21;3.83;;;2.20;;
79585;SDS011;69054;50.866;4.636;2023-07-29T00:53:47;3.33;;;2.13;;
79585;SDS011;69054;50.866;4.636;2023-07-29T00:56:12;6.03;;;2.53;;
79585;SDS011;69054;50.866;4.636;2023-07-29T00:58:38;3.38;;;2.28;;
79585;SDS011;69054;50.866;4.636;2023-07-29T01:01:03;3.75;;;2.28;;
79585;SDS011;69054;50.866;4.636;2023-07-29T01:03:29;3.70;;;2.17;;
79585;SDS011;69054;50.866;4.636;2023-07-29T01:11:30;4.30;;;2.25;;
79585;SDS011;69054;50.866;4.636;2023-07-29T01:16:55;5.55;;;2.35;;
79585;SDS011;69054;50.866;4.636;2023-07-29T01:22:10;5.68;;;2.30;;
79585;SDS011;69054;50.866;4.636;2023-07-29T01:24:37;4.45;;;2.20;;
79585;SDS011;69054;50.866;4.636;2023-07-29T01:27:03;3.72;;;2.17;;
79585;SDS011;69054;50.866;4.636;2023-07-29T01:29:29;4.55;;;2.20;;
79585;SDS011;69054;50.866;4.636;2023-07-29T01:31:56;6.57;;;2.25;;
79585;SDS011;69054;50.866;4.636;2023-07-29T01:34:26;3.45;;;2.15;;
79585;SDS011;69054;50.866;4.636;2023-07-29T01:36:57;4.53;;;2.10;;
79585;SDS011;69054;50.866;4.636;2023-07-29T01:39:27;5.13;;;2.55;;
79585;SDS011;69054;50.866;4.636;2023-07-29T01:44:23;3.85;;;2.53;;
79585;SDS011;69054;50.866;4.636;2023-07-29T01:46:49;4.60;;;2.25;;
79585;SDS011;69054;50.866;4.636;2023-07-29T01:49:15;4.63;;;1.80;;
79585;SDS011;69054;50.866;4.636;2023-07-29T01:51:40;2.78;;;2.10;;
79585;SDS011;69054;50.866;4.636;2023-07-29T01:54:05;3.03;;;1.95;;
79585;SDS011;69054;50.866;4.636;2023-07-29T01:56:31;3.28;;;2.05;;
79585;SDS011;69054;50.866;4.636;2023-07-29T01:58:56;3.30;;;2.10;;
79585;SDS011;69054;50.866;4.636;2023-07-29T02:01:21;3.78;;;2.10;;
79585;SDS011;69054;50.866;4.636;2023-07-29T02:03:47;4.70;;;2.22;;
79585;SDS011;69054;50.866;4.636;2023-07-29T02:06:18;3.78;;;2.05;;
79585;SDS011;69054;50.866;4.636;2023-07-29T02:08:43;3.85;;;1.90;;
79585;SDS011;69054;50.866;4.636;2023-07-29T02:11:09;5.10;;;2.60;;
79585;SDS011;69054;50.866;4.636;2023-07-29T02:13:34;5.20;;;2.40;;
79585;SDS011;69054;50.866;4.636;2023-07-29T02:15:59;4.15;;;2.55;;
79585;SDS011;69054;50.866;4.636;2023-07-29T02:18:25;6.03;;;2.40;;
79585;SDS011;69054;50.866;4.636;2023-07-29T02:20:50;4.00;;;2.25;;
79585;SDS011;69054;50.866;4.636;2023-07-29T02:23:15;3.30;;;2.25;;
79585;SDS011;69054;50.866;4.636;2023-07-29T02:25:44;4.20;;;2.42;;
79585;SDS011;69054;50.866;4.636;2023-07-29T02:28:09;5.05;;;2.58;;
79585;SDS011;69054;50.866;4.636;2023-07-29T02:30:34;4.00;;;2.47;;
79585;SDS011;69054;50.866;4.636;2023-07-29T02:33:00;4.80;;;2.30;;
79585;SDS011;69054;50.866;4.636;2023-07-29T02:35:26;4.13;;;2.35;;
79585;SDS011;69054;50.866;4.636;2023-07-29T02:37:52;5.95;;;2.40;;
79585;SDS011;69054;50.866;4.636;2023-07-29T02:40:17;3.60;;;2.30;;
79585;SDS011;69054;50.866;4.636;2023-07-29T02:42:43;3.33;;;2.15;;
79585;SDS011;69054;50.866;4.636;2023-07-29T02:45:08;5.47;;;2.50;;
79585;SDS011;69054;50.866;4.636;2023-07-29T02:47:36;5.30;;;2.40;;
79585;SDS011;69054;50.866;4.636;2023-07-29T02:50:02;4.30;;;2.33;;
79585;SDS011;69054;50.866;4.636;2023-07-29T02:52:28;4.80;;;2.75;;
79585;SDS011;69054;50.866;4.636;2023-07-29T02:54:53;4.60;;;2.33;;
79585;SDS011;69054;50.866;4.636;2023-07-29T02:57:18;4.47;;;2.35;;
79585;SDS011;69054;50.866;4.636;2023-07-29T02:59:44;3.72;;;2.42;;
79585;SDS011;69054;50.866;4.636;2023-07-29T03:02:09;3.95;;;2.25;;
79585;SDS011;69054;50.866;4.636;2023-07-29T03:04:34;3.58;;;2.17;;
79585;SDS011;69054;50.866;4.636;2023-07-29T03:07:00;3.05;;;2.25;;
79585;SDS011;69054;50.866;4.636;2023-07-29T03:09:26;4.13;;;2.30;;
79585;SDS011;69054;50.866;4.636;2023-07-29T03:11:51;6.95;;;3.17;;
79585;SDS011;69054;50.866;4.636;2023-07-29T03:14:17;4.25;;;2.40;;
79585;SDS011;69054;50.866;4.636;2023-07-29T03:16:43;3.97;;;2.50;;
79585;SDS011;69054;50.866;4.636;2023-07-29T03:19:08;5.05;;;2.72;;
79585;SDS011;69054;50.866;4.636;2023-07-29T03:21:34;6.05;;;2.25;;
79585;SDS011;69054;50.866;4.636;2023-07-29T03:23:59;4.53;;;2.90;;
79585;SDS011;69054;50.866;4.636;2023-07-29T03:26:25;5.47;;;2.72;;
79585;SDS011;69054;50.866;4.636;2023-07-29T03:28:50;5.97;;;2.67;;
79585;SDS011;69054;50.866;4.636;2023-07-29T03:31:16;3.95;;;2.50;;
79585;SDS011;69054;50.866;4.636;2023-07-29T03:33:41;4.80;;;3.00;;
79585;SDS011;69054;50.866;4.636;2023-07-29T03:36:07;6.80;;;2.67;;
79585;SDS011;69054;50.866;4.636;2023-07-29T03:38:32;4.88;;;2.85;;
79585;SDS011;69054;50.866;4.636;2023-07-29T03:41:00;6.07;;;3.03;;
79585;SDS011;69054;50.866;4.636;2023-07-29T03:43:27;4.72;;;2.92;;
79585;SDS011;69054;50.866;4.636;2023-07-29T03:45:52;6.32;;;2.65;;
79585;SDS011;69054;50.866;4.636;2023-07-29T03:48:18;4.18;;;2.60;;
79585;SDS011;69054;50.866;4.636;2023-07-29T03:50:43;5.05;;;2.97;;
79585;SDS011;69054;50.866;4.636;2023-07-29T03:53:08;4.45;;;2.55;;
79585;SDS011;69054;50.866;4.636;2023-07-29T03:55:35;5.28;;;2.47;;
79585;SDS011;69054;50.866;4.636;2023-07-29T03:58:00;6.10;;;2.88;;
79585;SDS011;69054;50.866;4.636;2023-07-29T04:00:26;4.07;;;2.50;;
79585;SDS011;69054;50.866;4.636;2023-07-29T04:02:52;5.85;;;3.05;;
79585;SDS011;69054;50.866;4.636;2023-07-29T04:05:18;4.22;;;2.40;;
79585;SDS011;69054;50.866;4.636;2023-07-29T04:07:43;5.32;;;2.83;;
79585;SDS011;69054;50.866;4.636;2023-07-29T04:10:09;5.72;;;2.90;;
79585;SDS011;69054;50.866;4.636;2023-07-29T04:12:35;6.70;;;3.00;;
79585;SDS011;69054;50.866;4.636;2023-07-29T04:15:00;6.75;;;2.90;;
79585;SDS011;69054;50.866;4.636;2023-07-29T04:17:26;5.47;;;2.60;;
79585;SDS011;69054;50.866;4.636;2023-07-29T04:19:51;3.75;;;2.30;;
79585;SDS011;69054;50.866;4.636;2023-07-29T04:22:16;4.15;;;2.63;;
79585;SDS011;69054;50.866;4.636;2023-07-29T04:24:42;5.40;;;2.78;;
79585;SDS011;69054;50.866;4.636;2023-07-29T04:27:08;5.55;;;2.72;;
79585;SDS011;69054;50.866;4.636;2023-07-29T04:29:33;6.40;;;2.50;;
79585;SDS011;69054;50.866;4.636;2023-07-29T04:32:00;4.75;;;2.60;;
79585;SDS011;69054;50.866;4.636;2023-07-29T04:34:26;6.30;;;3.08;;
79585;SDS011;69054;50.866;4.636;2023-07-29T04:36:52;5.10;;;2.63;;
79585;SDS011;69054;50.866;4.636;2023-07-29T04:39:17;4.53;;;2.80;;
79585;SDS011;69054;50.866;4.636;2023-07-29T04:41:43;5.15;;;2.70;;
79585;SDS011;69054;50.866;4.636;2023-07-29T04:44:09;4.57;;;2.22;;
79585;SDS011;69054;50.866;4.636;2023-07-29T04:46:35;5.05;;;3.00;;
79585;SDS011;69054;50.866;4.636;2023-07-29T04:49:01;5.25;;;2.40;;
79585;SDS011;69054;50.866;4.636;2023-07-29T04:51:27;4.47;;;2.50;;
79585;SDS011;69054;50.866;4.636;2023-07-29T04:53:53;5.05;;;2.60;;
79585;SDS011;69054;50.866;4.636;2023-07-29T04:56:18;4.35;;;2.33;;
79585;SDS011;69054;50.866;4.636;2023-07-29T04:58:44;6.38;;;2.72;;
79585;SDS011;69054;50.866;4.636;2023-07-29T05:01:09;3.35;;;2.22;;
79585;SDS011;69054;50.866;4.636;2023-07-29T05:03:34;4.43;;;2.60;;
79585;SDS011;69054;50.866;4.636;2023-07-29T05:06:00;4.97;;;2.70;;
79585;SDS011;69054;50.866;4.636;2023-07-29T05:08:26;6.22;;;2.45;;
79585;SDS011;69054;50.866;4.636;2023-07-29T05:10:52;4.25;;;2.40;;
79585;SDS011;69054;50.866;4.636;2023-07-29T05:13:18;4.00;;;2.40;;
79585;SDS011;69054;50.866;4.636;2023-07-29T05:15:44;4.93;;;2.47;;
79585;SDS011;69054;50.866;4.636;2023-07-29T05:18:10;4.43;;;2.35;;
79585;SDS011;69054;50.866;4.636;2023-07-29T05:20:36;3.80;;;2.53;;
79585;SDS011;69054;50.866;4.636;2023-07-29T05:23:01;5.93;;;2.90;;
79585;SDS011;69054;50.866;4.636;2023-07-29T05:25:27;6.57;;;2.90;;
79585;SDS011;69054;50.866;4.636;2023-07-29T05:27:52;5.63;;;2.05;;
79585;SDS011;69054;50.866;4.636;2023-07-29T05:30:18;3.40;;;2.05;;
79585;SDS011;69054;50.866;4.636;2023-07-29T05:32:43;4.65;;;2.35;;
79585;SDS011;69054;50.866;4.636;2023-07-29T05:35:08;5.50;;;2.63;;
79585;SDS011;69054;50.866;4.636;2023-07-29T05:37:35;5.25;;;2.72;;
79585;SDS011;69054;50.866;4.636;2023-07-29T05:40:03;5.07;;;2.38;;
79585;SDS011;69054;50.866;4.636;2023-07-29T05:42:29;4.20;;;2.22;;
79585;SDS011;69054;50.866;4.636;2023-07-29T05:44:54;5.43;;;3.10;;
79585;SDS011;69054;50.866;4.636;2023-07-29T05:47:20;5.60;;;2.20;;
79585;SDS011;69054;50.866;4.636;2023-07-29T05:49:45;7.15;;;2.53;;
79585;SDS011;69054;50.866;4.636;2023-07-29T05:52:11;4.53;;;2.22;;
79585;SDS011;69054;50.866;4.636;2023-07-29T05:54:36;3.55;;;2.00;;
79585;SDS011;69054;50.866;4.636;2023-07-29T05:57:01;3.47;;;1.95;;
79585;SDS011;69054;50.866;4.636;2023-07-29T05:59:27;3.88;;;2.33;;
79585;SDS011;69054;50.866;4.636;2023-07-29T06:01:54;4.75;;;1.90;;
79585;SDS011;69054;50.866;4.636;2023-07-29T06:04:19;6.75;;;2.30;;
79585;SDS011;69054;50.866;4.636;2023-07-29T06:06:45;4.85;;;1.88;;
79585;SDS011;69054;50.866;4.636;2023-07-29T06:09:10;3.20;;;2.00;;
79585;SDS011;69054;50.866;4.636;2023-07-29T06:11:36;3.35;;;1.85;;
79585;SDS011;69054;50.866;4.636;2023-07-29T06:14:01;3.92;;;1.90;;
79585;SDS011;69054;50.866;4.636;2023-07-29T06:16:26;3.05;;;2.08;;
79585;SDS011;69054;50.866;4.636;2023-07-29T06:18:52;3.08;;;1.90;;
79585;SDS011;69054;50.866;4.636;2023-07-29T06:21:17;2.95;;;1.75;;
79585;SDS011;69054;50.866;4.636;2023-07-29T06:23:44;3.05;;;2.08;;
79585;SDS011;69054;50.866;4.636;2023-07-29T06:26:10;3.40;;;1.90;;
79585;SDS011;69054;50.866;4.636;2023-07-29T06:28:35;3.83;;;1.88;;
79585;SDS011;69054;50.866;4.636;2023-07-29T06:31:01;3.80;;;1.80;;
79585;SDS011;69054;50.866;4.636;2023-07-29T06:33:26;4.63;;;1.90;;
79585;SDS011;69054;50.866;4.636;2023-07-29T06:35:52;4.53;;;1.77;;
79585;SDS011;69054;50.866;4.636;2023-07-29T06:38:17;5.55;;;1.80;;
79585;SDS011;69054;50.866;4.636;2023-07-29T06:40:46;2.88;;;1.80;;
79585;SDS011;69054;50.866;4.636;2023-07-29T06:43:14;3.17;;;2.00;;
79585;SDS011;69054;50.866;4.636;2023-07-29T06:45:40;3.08;;;1.70;;
79585;SDS011;69054;50.866;4.636;2023-07-29T06:48:05;2.63;;;1.70;;
79585;SDS011;69054;50.866;4.636;2023-07-29T06:50:30;3.30;;;1.65;;
79585;SDS011;69054;50.866;4.636;2023-07-29T06:52:56;3.10;;;1.60;;
79585;SDS011;69054;50.866;4.636;2023-07-29T06:55:21;4.43;;;1.70;;
79585;SDS011;69054;50.866;4.636;2023-07-29T06:57:47;3.75;;;1.70;;
79585;SDS011;69054;50.866;4.636;2023-07-29T07:00:12;2.38;;;1.48;;
79585;SDS011;69054;50.866;4.636;2023-07-29T07:02:38;2.55;;;1.45;;
79585;SDS011;69054;50.866;4.636;2023-07-29T07:05:03;2.95;;;1.60;;
79585;SDS011;69054;50.866;4.636;2023-07-29T07:07:29;3.15;;;1.58;;
79585;SDS011;69054;50.866;4.636;2023-07-29T07:09:55;2.03;;;1.40;;
79585;SDS011;69054;50.866;4.636;2023-07-29T07:12:20;2.45;;;1.60;;
79585;SDS011;69054;50.866;4.636;2023-07-29T07:14:46;6.47;;;1.70;;
79585;SDS011;69054;50.866;4.636;2023-07-29T07:17:12;5.20;;;2.25;;
79585;SDS011;69054;50.866;4.636;2023-07-29T07:19:37;2.53;;;1.52;;
79585;SDS011;69054;50.866;4.636;2023-07-29T07:22:03;4.32;;;1.60;;
79585;SDS011;69054;50.866;4.636;2023-07-29T07:24:29;3.28;;;1.80;;
79585;SDS011;69054;50.866;4.636;2023-07-29T07:26:54;3.00;;;1.65;;
79585;SDS011;69054;50.866;4.636;2023-07-29T07:29:19;2.25;;;1.40;;
79585;SDS011;69054;50.866;4.636;2023-07-29T07:31:49;2.88;;;1.73;;
79585;SDS011;69054;50.866;4.636;2023-07-29T07:34:17;3.75;;;1.77;;
79585;SDS011;69054;50.866;4.636;2023-07-29T07:36:43;2.92;;;1.40;;
79585;SDS011;69054;50.866;4.636;2023-07-29T07:39:11;5.57;;;1.75;;
79585;SDS011;69054;50.866;4.636;2023-07-29T07:41:37;3.03;;;1.50;;
79585;SDS011;69054;50.866;4.636;2023-07-29T07:44:08;3.25;;;1.60;;
79585;SDS011;69054;50.866;4.636;2023-07-29T07:46:34;7.45;;;2.10;;
79585;SDS011;69054;50.866;4.636;2023-07-29T07:48:59;3.47;;;1.63;;
79585;SDS011;69054;50.866;4.636;2023-07-29T07:51:28;4.18;;;1.70;;
79585;SDS011;69054;50.866;4.636;2023-07-29T07:53:53;2.42;;;1.60;;
79585;SDS011;69054;50.866;4.636;2023-07-29T07:56:18;2.97;;;1.50;;
79585;SDS011;69054;50.866;4.636;2023-07-29T07:58:44;3.35;;;1.50;;
79585;SDS011;69054;50.866;4.636;2023-07-29T08:01:09;2.20;;;1.50;;
79585;SDS011;69054;50.866;4.636;2023-07-29T08:03:35;3.13;;;1.55;;
79585;SDS011;69054;50.866;4.636;2023-07-29T08:06:01;2.78;;;1.65;;
79585;SDS011;69054;50.866;4.636;2023-07-29T08:08:27;2.83;;;1.60;;
79585;SDS011;69054;50.866;4.636;2023-07-29T08:10:53;2.78;;;1.60;;
79585;SDS011;69054;50.866;4.636;2023-07-29T08:13:21;2.50;;;1.40;;
79585;SDS011;69054;50.866;4.636;2023-07-29T08:15:47;3.28;;;1.90;;
79585;SDS011;69054;50.866;4.636;2023-07-29T08:18:13;2.55;;;1.60;;
79585;SDS011;69054;50.866;4.636;2023-07-29T08:20:38;2.70;;;1.70;;
79585;SDS011;69054;50.866;4.636;2023-07-29T08:23:04;4.88;;;1.90;;
79585;SDS011;69054;50.866;4.636;2023-07-29T08:25:29;2.65;;;1.60;;
79585;SDS011;69054;50.866;4.636;2023-07-29T08:27:54;7.47;;;1.77;;
79585;SDS011;69054;50.866;4.636;2023-07-29T08:30:20;3.72;;;1.70;;
79585;SDS011;69054;50.866;4.636;2023-07-29T08:32:46;3.42;;;1.60;;
79585;SDS011;69054;50.866;4.636;2023-07-29T08:35:12;3.78;;;1.63;;
79585;SDS011;69054;50.866;4.636;2023-07-29T08:37:37;2.38;;;1.40;;
79585;SDS011;69054;50.866;4.636;2023-07-29T08:40:02;3.30;;;1.75;;
79585;SDS011;69054;50.866;4.636;2023-07-29T08:42:29;2.35;;;1.58;;
79585;SDS011;69054;50.866;4.636;2023-07-29T08:44:56;2.60;;;1.67;;
79585;SDS011;69054;50.866;4.636;2023-07-29T08:47:31;2.58;;;1.50;;
79585;SDS011;69054;50.866;4.636;2023-07-29T08:49:56;4.97;;;1.95;;
79585;SDS011;69054;50.866;4.636;2023-07-29T08:52:24;3.15;;;1.52;;
79585;SDS011;69054;50.866;4.636;2023-07-29T08:54:51;2.30;;;1.65;;
79585;SDS011;69054;50.866;4.636;2023-07-29T08:57:17;3.13;;;1.70;;
79585;SDS011;69054;50.866;4.636;2023-07-29T08:59:45;2.40;;;1.55;;
79585;SDS011;69054;50.866;4.636;2023-07-29T09:02:10;2.67;;;1.52;;
79585;SDS011;69054;50.866;4.636;2023-07-29T09:04:36;2.58;;;1.67;;
79585;SDS011;69054;50.866;4.636;2023-07-29T09:07:01;2.50;;;1.60;;
79585;SDS011;69054;50.866;4.636;2023-07-29T09:09:27;3.17;;;1.60;;
79585;SDS011;69054;50.866;4.636;2023-07-29T09:11:53;2.20;;;1.67;;
79585;SDS011;69054;50.866;4.636;2023-07-29T09:14:19;3.13;;;1.88;;
79585;SDS011;69054;50.866;4.636;2023-07-29T09:16:45;3.08;;;1.80;;
79585;SDS011;69054;50.866;4.636;2023-07-29T09:19:11;2.38;;;1.52;;
79585;SDS011;69054;50.866;4.636;2023-07-29T09:21:38;3.67;;;1.85;;
79585;SDS011;69054;50.866;4.636;2023-07-29T09:24:04;2.78;;;1.88;;
79585;SDS011;69054;50.866;4.636;2023-07-29T09:26:32;2.75;;;1.83;;
79585;SDS011;69054;50.866;4.636;2023-07-29T09:28:58;3.63;;;1.83;;
79585;SDS011;69054;50.866;4.636;2023-07-29T09:31:25;4.15;;;2.00;;
79585;SDS011;69054;50.866;4.636;2023-07-29T09:33:58;3.20;;;1.80;;
79585;SDS011;69054;50.866;4.636;2023-07-29T09:36:25;3.80;;;1.85;;
79585;SDS011;69054;50.866;4.636;2023-07-29T09:38:54;3.92;;;1.80;;
79585;SDS011;69054;50.866;4.636;2023-07-29T09:43:54;3.65;;;2.10;;
79585;SDS011;69054;50.866;4.636;2023-07-29T09:46:23;3.35;;;2.00;;
79585;SDS011;69054;50.866;4.636;2023-07-29T09:48:50;3.00;;;2.00;;
79585;SDS011;69054;50.866;4.636;2023-07-29T09:51:19;2.75;;;1.85;;
79585;SDS011;69054;50.866;4.636;2023-07-29T09:53:46;2.70;;;1.80;;
79585;SDS011;69054;50.866;4.636;2023-07-29T09:56:13;3.40;;;2.40;;
79585;SDS011;69054;50.866;4.636;2023-07-29T09:58:39;3.10;;;2.20;;
79585;SDS011;69054;50.866;4.636;2023-07-29T10:01:05;3.35;;;2.10;;
79585;SDS011;69054;50.866;4.636;2023-07-29T10:03:31;4.60;;;2.17;;
79585;SDS011;69054;50.866;4.636;2023-07-29T10:06:02;3.97;;;2.22;;
79585;SDS011;69054;50.866;4.636;2023-07-29T10:08:31;3.97;;;1.95;;
79585;SDS011;69054;50.866;4.636;2023-07-29T10:11:00;4.63;;;2.00;;
79585;SDS011;69054;50.866;4.636;2023-07-29T10:13:26;2.72;;;1.80;;
79585;SDS011;69054;50.866;4.636;2023-07-29T10:15:55;3.20;;;2.00;;
79585;SDS011;69054;50.866;4.636;2023-07-29T10:18:21;3.92;;;2.70;;
79585;SDS011;69054;50.866;4.636;2023-07-29T10:20:48;3.75;;;2.00;;
79585;SDS011;69054;50.866;4.636;2023-07-29T10:23:16;5.47;;;2.20;;
79585;SDS011;69054;50.866;4.636;2023-07-29T10:25:46;3.53;;;2.00;;
79585;SDS011;69054;50.866;4.636;2023-07-29T10:28:15;3.55;;;1.98;;
79585;SDS011;69054;50.866;4.636;2023-07-29T10:30:45;3.85;;;1.80;;
79585;SDS011;69054;50.866;4.636;2023-07-29T10:33:11;3.75;;;2.20;;
79585;SDS011;69054;50.866;4.636;2023-07-29T10:35:37;3.40;;;2.40;;
79585;SDS011;69054;50.866;4.636;2023-07-29T10:38:03;3.03;;;2.05;;
79585;SDS011;69054;50.866;4.636;2023-07-29T10:40:50;4.20;;;2.00;;
79585;SDS011;69054;50.866;4.636;2023-07-29T10:43:24;4.13;;;2.42;;
79585;SDS011;69054;50.866;4.636;2023-07-29T10:54:08;4.25;;;2.85;;
79585;SDS011;69054;50.866;4.636;2023-07-29T10:56:37;5.47;;;2.97;;
79585;SDS011;69054;50.866;4.636;2023-07-29T11:01:38;5.38;;;2.85;;
79585;SDS011;69054;50.866;4.636;2023-07-29T11:17:39;4.43;;;2.95;;
79585;SDS011;69054;50.866;4.636;2023-07-29T11:20:07;5.50;;;3.03;;
79585;SDS011;69054;50.866;4.636;2023-07-29T11:22:33;3.40;;;2.85;;
79585;SDS011;69054;50.866;4.636;2023-07-29T11:24:59;3.55;;;2.50;;
79585;SDS011;69054;50.866;4.636;2023-07-29T11:27:24;2.97;;;2.45;;
79585;SDS011;69054;50.866;4.636;2023-07-29T11:29:50;5.03;;;2.65;;
79585;SDS011;69054;50.866;4.636;2023-07-29T11:32:15;4.97;;;2.83;;
79585;SDS011;69054;50.866;4.636;2023-07-29T11:34:41;4.20;;;3.28;;
79585;SDS011;69054;50.866;4.636;2023-07-29T11:37:10;4.80;;;3.20;;
79585;SDS011;69054;50.866;4.636;2023-07-29T11:39:42;3.95;;;2.88;;
79585;SDS011;69054;50.866;4.636;2023-07-29T11:42:12;4.28;;;3.35;;
79585;SDS011;69054;50.866;4.636;2023-07-29T11:44:38;3.78;;;3.25;;
79585;SDS011;69054;50.866;4.636;2023-07-29T11:47:07;4.18;;;2.90;;
79585;SDS011;69054;50.866;4.636;2023-07-29T11:49:33;3.30;;;2.80;;
79585;SDS011;69054;50.866;4.636;2023-07-29T11:51:59;3.15;;;2.38;;
79585;SDS011;69054;50.866;4.636;2023-07-29T11:54:25;3.22;;;2.63;;
79585;SDS011;69054;50.866;4.636;2023-07-29T11:56:50;3.90;;;2.90;;
79585;SDS011;69054;50.866;4.636;2023-07-29T11:59:16;3.30;;;2.50;;
79585;SDS011;69054;50.866;4.636;2023-07-29T12:01:41;3.70;;;2.70;;
79585;SDS011;69054;50.866;4.636;2023-07-29T12:04:07;3.45;;;2.20;;
79585;SDS011;69054;50.866;4.636;2023-07-29T12:06:32;3.22;;;1.92;;
79585;SDS011;69054;50.866;4.636;2023-07-29T12:08:58;2.70;;;2.13;;
79585;SDS011;69054;50.866;4.636;2023-07-29T12:11:23;3.60;;;2.25;;
79585;SDS011;69054;50.866;4.636;2023-07-29T12:13:49;4.53;;;2.33;;
79585;SDS011;69054;50.866;4.636;2023-07-29T12:16:17;3.53;;;2.22;;
79585;SDS011;69054;50.866;4.636;2023-07-29T12:18:43;2.78;;;2.30;;
79585;SDS011;69054;50.866;4.636;2023-07-29T12:21:08;2.72;;;2.20;;
79585;SDS011;69054;50.866;4.636;2023-07-29T12:23:34;3.10;;;2.35;;
79585;SDS011;69054;50.866;4.636;2023-07-29T12:25:59;3.42;;;2.80;;
79585;SDS011;69054;50.866;4.636;2023-07-29T12:28:25;3.45;;;2.72;;
79585;SDS011;69054;50.866;4.636;2023-07-29T12:30:57;5.55;;;3.20;;
79585;SDS011;69054;50.866;4.636;2023-07-29T12:33:32;3.60;;;2.70;;
79585;SDS011;69054;50.866;4.636;2023-07-29T12:36:00;3.40;;;2.80;;
79585;SDS011;69054;50.866;4.636;2023-07-29T12:38:25;3.53;;;3.15;;
79585;SDS011;69054;50.866;4.636;2023-07-29T12:40:51;4.35;;;3.10;;
79585;SDS011;69054;50.866;4.636;2023-07-29T12:43:16;3.80;;;2.90;;
79585;SDS011;69054;50.866;4.636;2023-07-29T12:45:42;4.43;;;3.15;;
79585;SDS011;69054;50.866;4.636;2023-07-29T12:48:09;5.30;;;3.63;;
79585;SDS011;69054;50.866;4.636;2023-07-29T12:50:34;7.05;;;3.67;;
79585;SDS011;69054;50.866;4.636;2023-07-29T12:53:00;4.60;;;3.53;;
79585;SDS011;69054;50.866;4.636;2023-07-29T12:55:25;5.38;;;3.67;;
79585;SDS011;69054;50.866;4.636;2023-07-29T12:57:51;5.32;;;3.63;;
79585;SDS011;69054;50.866;4.636;2023-07-29T13:00:16;4.80;;;3.60;;
79585;SDS011;69054;50.866;4.636;2023-07-29T13:02:42;5.43;;;3.15;;
79585;SDS011;69054;50.866;4.636;2023-07-29T13:05:09;3.42;;;2.40;;
79585;SDS011;69054;50.866;4.636;2023-07-29T13:07:38;2.95;;;1.98;;
79585;SDS011;69054;50.866;4.636;2023-07-29T13:10:04;3.75;;;2.72;;
79585;SDS011;69054;50.866;4.636;2023-07-29T13:12:30;3.67;;;2.42;;
79585;SDS011;69054;50.866;4.636;2023-07-29T13:14:55;3.15;;;2.30;;
79585;SDS011;69054;50.866;4.636;2023-07-29T13:17:21;2.83;;;2.45;;
79585;SDS011;69054;50.866;4.636;2023-07-29T13:19:47;3.50;;;2.40;;
79585;SDS011;69054;50.866;4.636;2023-07-29T13:22:12;3.42;;;2.60;;
79585;SDS011;69054;50.866;4.636;2023-07-29T13:24:38;3.30;;;2.00;;
79585;SDS011;69054;50.866;4.636;2023-07-29T13:27:03;2.67;;;2.10;;
79585;SDS011;69054;50.866;4.636;2023-07-29T13:29:29;3.90;;;2.45;;
79585;SDS011;69054;50.866;4.636;2023-07-29T13:31:54;3.53;;;2.30;;
79585;SDS011;69054;50.866;4.636;2023-07-29T13:34:20;2.60;;;2.10;;
79585;SDS011;69054;50.866;4.636;2023-07-29T13:36:45;2.92;;;2.35;;
79585;SDS011;69054;50.866;4.636;2023-07-29T13:39:10;3.22;;;2.38;;
79585;SDS011;69054;50.866;4.636;2023-07-29T13:41:36;2.85;;;2.33;;
79585;SDS011;69054;50.866;4.636;2023-07-29T13:44:01;3.72;;;2.22;;
79585;SDS011;69054;50.866;4.636;2023-07-29T13:46:26;3.55;;;2.45;;
79585;SDS011;69054;50.866;4.636;2023-07-29T13:48:52;3.17;;;2.50;;
79585;SDS011;69054;50.866;4.636;2023-07-29T13:51:17;3.20;;;2.53;;
79585;SDS011;69054;50.866;4.636;2023-07-29T13:53:42;3.40;;;2.70;;
79585;SDS011;69054;50.866;4.636;2023-07-29T13:56:08;3.80;;;2.70;;
79585;SDS011;69054;50.866;4.636;2023-07-29T13:58:33;2.70;;;2.25;;
79585;SDS011;69054;50.866;4.636;2023-07-29T14:00:58;3.33;;;2.58;;
79585;SDS011;69054;50.866;4.636;2023-07-29T14:03:24;3.55;;;2.40;;
79585;SDS011;69054;50.866;4.636;2023-07-29T14:05:49;5.22;;;2.88;;
79585;SDS011;69054;50.866;4.636;2023-07-29T14:08:14;3.35;;;2.40;;
79585;SDS011;69054;50.866;4.636;2023-07-29T14:10:40;4.15;;;2.38;;
79585;SDS011;69054;50.866;4.636;2023-07-29T14:13:05;4.10;;;2.53;;
79585;SDS011;69054;50.866;4.636;2023-07-29T14:15:31;3.03;;;2.30;;
79585;SDS011;69054;50.866;4.636;2023-07-29T14:17:57;3.65;;;2.42;;
79585;SDS011;69054;50.866;4.636;2023-07-29T14:20:23;3.97;;;2.55;;
79585;SDS011;69054;50.866;4.636;2023-07-29T14:22:48;3.05;;;2.40;;
79585;SDS011;69054;50.866;4.636;2023-07-29T14:25:14;3.13;;;2.33;;
79585;SDS011;69054;50.866;4.636;2023-07-29T14:27:40;2.97;;;1.80;;
79585;SDS011;69054;50.866;4.636;2023-07-29T14:30:06;2.45;;;1.80;;
79585;SDS011;69054;50.866;4.636;2023-07-29T14:32:32;3.72;;;1.85;;
79585;SDS011;69054;50.866;4.636;2023-07-29T14:34:58;2.90;;;1.80;;
79585;SDS011;69054;50.866;4.636;2023-07-29T14:37:31;3.35;;;2.20;;
79585;SDS011;69054;50.866;4.636;2023-07-29T14:39:57;2.35;;;1.70;;
79585;SDS011;69054;50.866;4.636;2023-07-29T14:42:23;2.50;;;1.90;;
79585;SDS011;69054;50.866;4.636;2023-07-29T14:44:48;2.65;;;1.98;;
79585;SDS011;69054;50.866;4.636;2023-07-29T14:47:14;2.50;;;1.80;;
79585;SDS011;69054;50.866;4.636;2023-07-29T14:49:39;2.58;;;1.90;;
79585;SDS011;69054;50.866;4.636;2023-07-29T14:52:05;2.30;;;1.73;;
79585;SDS011;69054;50.866;4.636;2023-07-29T14:54:31;2.45;;;1.88;;
79585;SDS011;69054;50.866;4.636;2023-07-29T14:56:56;2.33;;;1.67;;
79585;SDS011;69054;50.866;4.636;2023-07-29T15:01:47;2.47;;;1.67;;
79585;SDS011;69054;50.866;4.636;2023-07-29T15:04:13;2.55;;;1.80;;
79585;SDS011;69054;50.866;4.636;2023-07-29T15:06:38;3.75;;;1.80;;
79585;SDS011;69054;50.866;4.636;2023-07-29T15:09:04;3.00;;;1.90;;
79585;SDS011;69054;50.866;4.636;2023-07-29T15:11:30;2.30;;;1.60;;
79585;SDS011;69054;50.866;4.636;2023-07-29T15:13:57;2.75;;;1.80;;
79585;SDS011;69054;50.866;4.636;2023-07-29T15:16:23;2.50;;;1.88;;
79585;SDS011;69054;50.866;4.636;2023-07-29T15:18:49;3.10;;;2.05;;
79585;SDS011;69054;50.866;4.636;2023-07-29T15:21:15;2.55;;;1.70;;
79585;SDS011;69054;50.866;4.636;2023-07-29T15:23:40;3.17;;;1.95;;